Terminal Aerodrome Forecast
Issued by NWS Detroit/Pontiac, MI

Home | Current Version | Previous Version | Text Only | Print | Product List | Glossary On
Versions: 1 2 3 4 5 6 7 8 9 10 11 12 13 14 15 16 17 18
000
FTUS43 KDTX 291138
TAFFNT
TAF
KFNT 291138Z 2912/3012 16005KT P6SM SCT080 BKN250
     FM291900 17014KT P6SM SCT050
     FM300100 18010KT P6SM BKN050 OVC150 PROB30 3002/3006 3SM SHRA
      OVC030=

USA.gov is the U.S. government's official web portal to all federal, state and local government web resources and services.